Time;durP1;ratioP1;P1;durP2;ratioP2;P2;SDS_P1;SDS_P2;PMS_P1;PMS_P2;Temp;Humidity;BMP_temperature;BMP_pressure;BME280_temperature;BME280_humidity;BME280_pressure;Samples;Min_cycle;Max_cycle;Signal;HPM_P1;HPM_P2
2022/05/27 00:02:12;;;;;;;11.10;3.50;;;14.50;89.60;;;;;;5031876;28;20095;-77
2022/05/27 00:04:37;;;;;;;13.00;3.78;;;14.50;89.60;;;;;;5031674;28;20045;-74
2022/05/27 00:07:04;;;;;;;11.63;3.58;;;14.50;89.60;;;;;;5015247;28;20045;-74
2022/05/27 00:09:29;;;;;;;13.68;4.18;;;14.40;89.40;;;;;;5015550;28;20505;-75
2022/05/27 00:11:55;;;;;;;11.13;3.47;;;14.30;89.60;;;;;;5031738;28;20124;-73
2022/05/27 00:14:21;;;;;;;13.32;3.42;;;14.30;89.40;;;;;;5031963;28;20052;-74
2022/05/27 00:16:47;;;;;;;11.35;3.55;;;14.30;89.50;;;;;;5031693;28;20449;-78
2022/05/27 00:19:13;;;;;;;16.75;3.45;;;14.20;89.60;;;;;;5015102;28;20048;-75
2022/05/27 00:21:38;;;;;;;19.42;5.05;;;14.10;89.60;;;;;;5015055;28;20517;-78
2022/05/27 00:24:05;;;;;;;15.05;4.38;;;14.00;89.60;;;;;;5031625;28;20083;-76
2022/05/27 00:26:31;;;;;;;13.43;3.95;;;14.00;89.50;;;;;;5031680;28;20155;-75
2022/05/27 00:28:57;;;;;;;14.85;4.15;;;14.00;89.50;;;;;;5015109;28;20042;-74
2022/05/27 00:31:23;;;;;;;16.30;4.32;;;14.00;89.50;;;;;;5032059;28;20072;-74
2022/05/27 00:33:49;;;;;;;17.38;4.40;;;13.90;89.60;;;;;;5031718;28;20477;-75
2022/05/27 00:36:15;;;;;;;16.00;3.60;;;13.80;89.90;;;;;;5031501;28;20120;-75
2022/05/27 00:38:42;;;;;;;10.00;3.88;;;13.80;90.10;;;;;;5031448;28;20560;-75
2022/05/27 00:41:09;;;;;;;11.32;3.55;;;13.80;89.60;;;;;;5015017;28;20048;-76
2022/05/27 00:43:35;;;;;;;11.45;4.15;;;13.80;89.80;;;;;;5035047;28;20528;-76
2022/05/27 00:46:18;;;;;;;11.00;4.25;;;13.70;89.70;;;;;;5035418;28;20056;-75
2022/05/27 00:48:46;;;;;;;16.02;4.47;;;13.80;89.60;;;;;;5035407;28;20146;-77
2022/05/27 00:51:17;;;;;;;13.15;3.72;;;13.60;89.50;;;;;;5035288;28;20037;-77
2022/05/27 00:53:56;;;;;;;17.92;4.90;;;13.60;89.70;;;;;;5035816;28;20397;-74
2022/05/27 00:56:25;;;;;;;20.67;5.32;;;13.60;89.40;;;;;;5036384;28;20041;-77
2022/05/27 00:58:56;;;;;;;15.90;3.35;;;13.60;89.10;;;;;;5021864;28;20053;-74
2022/05/27 01:01:23;;;;;;;15.02;3.85;;;13.50;89.00;;;;;;5038626;28;20041;-78
2022/05/27 01:03:49;;;;;;;14.40;3.60;;;13.50;88.60;;;;;;5022400;28;20041;-74
2022/05/27 01:06:15;;;;;;;16.58;4.13;;;13.50;88.60;;;;;;5038363;28;20554;-74
2022/05/27 01:08:42;;;;;;;13.13;3.47;;;13.40;88.30;;;;;;5038308;28;20084;-75
2022/05/27 01:11:13;;;;;;;14.45;3.42;;;13.40;88.40;;;;;;5038216;28;20037;-74
2022/05/27 01:14:00;;;;;;;11.57;2.88;;;13.40;88.00;;;;;;5038440;28;20041;-77
2022/05/27 01:17:03;;;;;;;9.70;3.85;;;13.30;87.90;;;;;;5038453;28;20389;-76
2022/05/27 01:20:18;;;;;;;12.32;2.92;;;13.20;87.80;;;;;;5021611;28;20041;-75
2022/05/27 01:23:03;;;;;;;14.90;3.97;;;13.20;87.90;;;;;;5038132;28;20076;-77
2022/05/27 01:25:50;;;;;;;14.50;3.28;;;13.10;87.80;;;;;;5037961;28;20129;-73
2022/05/27 01:28:38;;;;;;;15.63;3.80;;;13.10;87.40;;;;;;5037767;28;20052;-77
2022/05/27 01:31:10;;;;;;;12.07;3.22;;;13.10;87.40;;;;;;5038021;28;20041;-76
2022/05/27 01:34:11;;;;;;;11.82;3.60;;;13.00;87.30;;;;;;5021688;28;20511;-75
2022/05/27 01:36:45;;;;;;;10.20;2.85;;;13.00;87.40;;;;;;5037758;28;20124;-77
2022/05/27 01:39:17;;;;;;;14.38;4.15;;;12.90;87.30;;;;;;5037635;28;20489;-76
2022/05/27 01:41:57;;;;;;;14.18;3.65;;;12.90;87.50;;;;;;5021214;28;20072;-75
2022/05/27 01:44:30;;;;;;;10.68;3.15;;;12.90;87.60;;;;;;5037950;28;20381;-75
2022/05/27 01:46:56;;;;;;;11.38;3.22;;;12.90;87.60;;;;;;5037692;28;20057;-75
2022/05/27 01:49:45;;;;;;;13.52;3.47;;;12.90;87.40;;;;;;5037441;28;20044;-75
2022/05/27 01:52:26;;;;;;;13.60;4.45;;;12.90;87.50;;;;;;5037490;28;20420;-76
2022/05/27 01:54:55;;;;;;;11.85;3.55;;;12.80;87.40;;;;;;5036991;28;20447;-76
2022/05/27 01:57:30;;;;;;;12.48;3.50;;;12.80;87.60;;;;;;5017543;28;20065;-76
2022/05/27 02:00:20;;;;;;;12.45;3.50;;;12.70;87.60;;;;;;5033977;28;20052;-74
2022/05/27 02:02:53;;;;;;;13.73;3.97;;;12.70;87.80;;;;;;5034044;28;20247;-74
2022/05/27 02:05:22;;;;;;;13.00;3.07;;;12.70;87.60;;;;;;5034314;28;20437;-74
2022/05/27 02:07:54;;;;;;;17.35;3.97;;;12.60;87.50;;;;;;5033776;28;20045;-76
2022/05/27 02:10:23;;;;;;;17.70;4.13;;;12.60;87.60;;;;;;5033965;28;20033;-75
2022/05/27 02:12:55;;;;;;;10.20;2.97;;;12.60;87.60;;;;;;5033849;28;20045;-75
2022/05/27 02:15:29;;;;;;;15.82;3.78;;;12.60;87.50;;;;;;5034068;28;20068;-74
2022/05/27 02:17:59;;;;;;;16.25;3.88;;;12.50;87.60;;;;;;5033759;28;20076;-74
2022/05/27 02:20:34;;;;;;;12.35;3.25;;;12.50;87.60;;;;;;5033813;28;20045;-74
2022/05/27 02:23:17;;;;;;;14.25;3.88;;;12.50;87.40;;;;;;5017172;28;20053;-73
2022/05/27 02:25:45;;;;;;;14.80;3.38;;;12.40;87.40;;;;;;5033684;28;20249;-74
2022/05/27 02:28:16;;;;;;;9.52;3.58;;;12.40;87.50;;;;;;5033459;28;20045;-74
2022/05/27 02:30:45;;;;;;;12.80;4.28;;;12.40;87.40;;;;;;5033690;28;20485;-75
2022/05/27 02:36:05;;;;;;;18.17;4.07;;;12.20;87.40;;;;;;5033363;28;20232;-75
2022/05/27 02:38:32;;;;;;;14.48;3.42;;;12.20;87.70;;;;;;5033380;28;20049;-74
2022/05/27 02:41:31;;;;;;;11.90;3.70;;;12.10;87.70;;;;;;5033207;28;20523;-75
2022/05/27 02:44:51;;;;;;;13.88;3.55;;;12.10;87.80;;;;;;5033230;28;20081;-76
2022/05/27 02:47:48;;;;;;;13.50;3.65;;;12.00;88.20;;;;;;4976534;28;20133;-76
2022/05/27 02:50:34;;;;;;;17.30;4.50;;;12.00;88.20;;;;;;4989983;28;20505;-74
2022/05/27 02:53:05;;;;;;;14.85;3.78;;;12.00;88.00;;;;;;5033040;28;20160;-75
2022/05/27 02:55:55;;;;;;;14.25;4.93;;;12.00;88.10;;;;;;5033047;28;20048;-76
2022/05/27 02:58:21;;;;;;;15.90;4.25;;;12.00;88.20;;;;;;5032926;28;20054;-76
2022/05/27 03:00:47;;;;;;;13.43;3.63;;;12.00;88.20;;;;;;5016574;28;20132;-74
2022/05/27 03:03:12;;;;;;;14.43;3.78;;;12.00;88.30;;;;;;5033053;28;20149;-74
2022/05/27 03:05:59;;;;;;;17.23;5.63;;;12.00;88.20;;;;;;5031652;28;20513;-75
2022/05/27 03:08:30;;;;;;;16.13;4.95;;;11.90;88.40;;;;;;5032341;28;20042;-76
2022/05/27 03:11:27;;;;;;;15.00;3.88;;;11.80;88.40;;;;;;5032561;28;20052;-76
2022/05/27 03:14:22;;;;;;;16.00;4.32;;;11.80;88.50;;;;;;5032889;28;20049;-73
2022/05/27 03:17:16;;;;;;;14.55;4.15;;;11.80;88.60;;;;;;5032635;28;20168;-75
2022/05/27 03:20:02;;;;;;;16.42;4.93;;;11.80;88.60;;;;;;5032720;28;20099;-77
2022/05/27 03:23:05;;;;;;;18.17;3.90;;;11.70;88.50;;;;;;5016043;28;20477;-75
2022/05/27 03:25:48;;;;;;;14.73;3.95;;;11.70;88.60;;;;;;5032484;28;20087;-73
2022/05/27 03:28:46;;;;;;;20.40;4.13;;;11.70;88.70;;;;;;5032299;28;20095;-75
2022/05/27 03:31:17;;;;;;;15.07;3.83;;;11.60;88.70;;;;;;5032262;28;20056;-73
2022/05/27 03:34:06;;;;;;;10.38;3.03;;;11.60;88.40;;;;;;5015841;28;20034;-73
2022/05/27 03:36:42;;;;;;;12.60;3.83;;;11.70;88.40;;;;;;5032269;28;20125;-74
2022/05/27 03:39:39;;;;;;;12.35;3.78;;;11.60;88.30;;;;;;5015718;28;20524;-75
2022/05/27 03:42:08;;;;;;;10.85;3.53;;;11.60;88.10;;;;;;5032507;28;20477;-75
2022/05/27 03:44:35;;;;;;;13.13;3.22;;;11.60;87.80;;;;;;5032327;28;20146;-79
2022/05/27 03:47:00;;;;;;;13.73;3.30;;;11.60;87.60;;;;;;5032276;28;20421;-76
2022/05/27 03:49:27;;;;;;;10.77;3.40;;;11.70;87.40;;;;;;5031973;28;20041;-74
2022/05/27 03:52:18;;;;;;;12.80;3.35;;;11.70;87.30;;;;;;5032012;28;20051;-73
2022/05/27 03:54:44;;;;;;;12.63;3.50;;;11.70;86.60;;;;;;5031956;28;20038;-73
2022/05/27 03:57:10;;;;;;;14.73;2.83;;;11.70;86.40;;;;;;5031630;28;20057;-72
2022/05/27 03:59:36;;;;;;;10.07;2.97;;;11.70;85.90;;;;;;5032110;28;20051;-76
2022/05/27 04:02:01;;;;;;;15.70;3.53;;;11.70;85.90;;;;;;5015558;28;20041;-74
2022/05/27 04:04:28;;;;;;;16.80;2.80;;;11.70;85.60;;;;;;5031777;28;20052;-78
2022/05/27 04:06:57;;;;;;;14.65;3.17;;;11.70;85.60;;;;;;5015256;28;20501;-76
2022/05/27 04:09:24;;;;;;;10.57;3.33;;;11.70;85.20;;;;;;5031698;28;20149;-78
2022/05/27 04:11:51;;;;;;;11.63;2.80;;;11.70;84.40;;;;;;5031739;28;20045;-74
2022/05/27 04:14:17;;;;;;;14.25;3.58;;;11.70;84.40;;;;;;5015366;28;20072;-75
2022/05/27 04:16:43;;;;;;;12.05;3.50;;;11.70;83.70;;;;;;5031364;28;20053;-75
2022/05/27 04:19:09;;;;;;;9.77;4.15;;;11.80;83.20;;;;;;5031823;28;20095;-75
2022/05/27 04:21:36;;;;;;;11.65;3.40;;;11.70;83.20;;;;;;5031938;28;20045;-75
2022/05/27 04:24:02;;;;;;;12.68;3.05;;;11.70;83.20;;;;;;5015240;28;20099;-76
2022/05/27 04:26:28;;;;;;;16.05;3.20;;;11.80;82.70;;;;;;5031569;28;20045;-74
2022/05/27 04:28:53;;;;;;;14.88;4.03;;;11.90;82.60;;;;;;5015059;28;20051;-76
2022/05/27 04:31:19;;;;;;;9.80;3.05;;;11.90;82.40;;;;;;4998723;28;20519;-77
2022/05/27 04:33:45;;;;;;;10.75;2.67;;;12.00;82.40;;;;;;5015037;28;20045;-74
2022/05/27 04:36:11;;;;;;;11.52;2.85;;;12.00;82.20;;;;;;5031493;28;20033;-77
2022/05/27 04:38:38;;;;;;;12.00;2.60;;;12.00;82.00;;;;;;5031826;28;20371;-74
2022/05/27 04:41:04;;;;;;;9.23;2.58;;;12.10;81.60;;;;;;5031347;28;20048;-73
2022/05/27 04:43:30;;;;;;;12.98;2.95;;;12.10;81.90;;;;;;5031448;28;20053;-76
2022/05/27 04:45:55;;;;;;;14.60;3.05;;;12.10;81.80;;;;;;5014938;28;20094;-75
2022/05/27 04:48:22;;;;;;;10.40;3.95;;;12.10;82.00;;;;;;5031369;28;20049;-72
2022/05/27 04:50:47;;;;;;;9.25;2.83;;;12.20;81.90;;;;;;5031277;28;20045;-72
2022/05/27 04:53:14;;;;;;;10.57;2.60;;;12.20;81.90;;;;;;5014910;28;20421;-75
2022/05/27 04:55:41;;;;;;;13.82;3.47;;;12.30;81.30;;;;;;5014923;28;20131;-77
2022/05/27 04:58:07;;;;;;;10.23;2.70;;;12.20;81.50;;;;;;5031122;28;20057;-75
2022/05/27 05:00:36;;;;;;;15.63;3.40;;;12.20;81.40;;;;;;5015088;28;20049;-77
2022/05/27 05:03:03;;;;;;;9.07;2.97;;;12.30;81.20;;;;;;5031257;28;20096;-77
2022/05/27 05:05:31;;;;;;;12.88;2.58;;;12.30;80.70;;;;;;5014943;28;20049;-76
2022/05/27 05:08:01;;;;;;;8.75;2.80;;;12.40;79.90;;;;;;5031265;28;20481;-75
2022/05/27 05:10:28;;;;;;;13.10;3.20;;;12.40;79.70;;;;;;5014728;28;20041;-74
2022/05/27 05:12:55;;;;;;;9.02;2.88;;;12.50;79.00;;;;;;5031205;28;20474;-75
2022/05/27 05:15:21;;;;;;;12.38;3.05;;;12.50;78.10;;;;;;5031357;28;20390;-72
2022/05/27 05:17:47;;;;;;;9.10;2.65;;;12.60;78.30;;;;;;5014678;28;20045;-75
2022/05/27 05:20:16;;;;;;;13.07;3.15;;;12.70;77.90;;;;;;5014651;28;20067;-76
2022/05/27 05:22:42;;;;;;;10.55;3.17;;;12.70;77.70;;;;;;5031131;28;20045;-75
2022/05/27 05:25:08;;;;;;;11.63;3.10;;;12.70;77.30;;;;;;5031072;28;20042;-71
2022/05/27 05:27:34;;;;;;;11.93;2.88;;;12.70;77.10;;;;;;5030987;28;20125;-76
2022/05/27 05:30:02;;;;;;;11.10;2.65;;;12.70;77.30;;;;;;5033287;28;20091;-77
2022/05/27 05:32:27;;;;;;;15.35;3.53;;;12.80;76.50;;;;;;5034513;28;20041;-77
2022/05/27 05:34:54;;;;;;;11.68;3.17;;;12.80;76.60;;;;;;5018339;28;20083;-74
2022/05/27 05:37:20;;;;;;;10.85;2.80;;;12.80;75.90;;;;;;5034535;28;20049;-75
2022/05/27 05:39:46;;;;;;;13.38;3.17;;;12.80;75.90;;;;;;5034753;28;20068;-72
2022/05/27 05:42:12;;;;;;;8.73;2.70;;;12.80;76.20;;;;;;5034665;28;20049;-74
2022/05/27 05:44:37;;;;;;;15.43;3.13;;;12.90;75.90;;;;;;5017972;28;20107;-76
2022/05/27 05:47:04;;;;;;;14.98;4.55;;;12.90;75.70;;;;;;5034209;28;20038;-76
2022/05/27 05:49:30;;;;;;;9.57;3.03;;;12.90;75.70;;;;;;5018013;28;20441;-76
2022/05/27 05:51:58;;;;;;;15.20;3.10;;;13.00;75.70;;;;;;5034503;28;20049;-76
2022/05/27 05:54:25;;;;;;;8.10;2.42;;;13.00;74.50;;;;;;5034384;28;20398;-74
2022/05/27 05:56:51;;;;;;;13.38;2.92;;;13.10;73.50;;;;;;5035860;28;20045;-76
2022/05/27 05:59:19;;;;;;;16.80;3.60;;;13.10;72.70;;;;;;5037585;28;20045;-77
2022/05/27 06:01:45;;;;;;;7.57;2.75;;;13.20;72.00;;;;;;5037327;28;20045;-78
2022/05/27 06:04:11;;;;;;;5.22;1.42;;;13.20;69.90;;;;;;5037318;28;20044;-75
2022/05/27 06:06:38;;;;;;;15.23;3.45;;;13.30;69.20;;;;;;5037269;28;20033;-76
2022/05/27 06:09:06;;;;;;;14.32;3.42;;;13.30;69.40;;;;;;5020675;28;20084;-76
2022/05/27 06:11:33;;;;;;;8.48;2.50;;;13.30;69.20;;;;;;5037220;28;20097;-74
2022/05/27 06:13:59;;;;;;;12.93;3.63;;;13.30;68.20;;;;;;5037125;28;20125;-73
2022/05/27 06:16:24;;;;;;;9.93;2.63;;;13.30;68.10;;;;;;5037134;28;20091;-76
2022/05/27 06:18:50;;;;;;;12.93;3.58;;;13.30;69.10;;;;;;5020610;28;20177;-76
2022/05/27 06:21:16;;;;;;;8.82;2.65;;;13.50;68.60;;;;;;5036871;28;20127;-75
2022/05/27 06:23:42;;;;;;;11.68;2.50;;;13.50;68.90;;;;;;5037225;28;20389;-75
2022/05/27 06:26:10;;;;;;;9.23;2.40;;;13.50;67.90;;;;;;5020412;28;20041;-75
2022/05/27 06:34:25;;;;;;;9.75;3.17;;;13.60;67.30;;;;;;4996260;28;20157;-75
2022/05/27 06:37:00;;;;;;;8.77;2.45;;;13.60;67.90;;;;;;4996501;28;20042;-76
2022/05/27 06:39:27;;;;;;;12.82;2.88;;;13.70;65.60;;;;;;5027154;28;20431;-74
2022/05/27 06:41:53;;;;;;;12.07;3.10;;;13.70;65.90;;;;;;5036441;28;20051;-75
2022/05/27 06:44:19;;;;;;;9.95;2.85;;;13.70;66.10;;;;;;5036549;28;20393;-73
2022/05/27 06:46:46;;;;;;;10.15;2.78;;;13.70;66.50;;;;;;5036440;28;20037;-74
2022/05/27 06:49:12;;;;;;;12.18;3.10;;;13.70;66.00;;;;;;5036324;28;20041;-76
2022/05/27 06:51:40;;;;;;;17.40;3.35;;;13.70;66.70;;;;;;5036457;28;20044;-75
2022/05/27 06:54:07;;;;;;;11.10;3.40;;;13.70;66.90;;;;;;5036404;28;20123;-75
2022/05/27 06:56:40;;;;;;;14.65;4.03;;;13.70;68.10;;;;;;5036365;28;20049;-73
2022/05/27 06:59:07;;;;;;;12.98;3.50;;;13.70;67.20;;;;;;5016500;28;20493;-75
2022/05/27 07:01:34;;;;;;;13.73;2.42;;;13.80;67.70;;;;;;5032930;28;20128;-74
2022/05/27 07:04:00;;;;;;;11.38;3.00;;;13.90;67.20;;;;;;5016386;28;20052;-72
2022/05/27 07:06:30;;;;;;;10.30;2.72;;;14.00;66.20;;;;;;5033055;28;20042;-76
2022/05/27 07:08:56;;;;;;;11.63;2.45;;;14.00;67.70;;;;;;5032758;28;20049;-76
2022/05/27 07:11:21;;;;;;;10.38;2.63;;;14.00;68.80;;;;;;5032732;28;20393;-74
2022/05/27 07:13:48;;;;;;;9.63;2.72;;;13.90;67.70;;;;;;5032925;28;20087;-76
2022/05/27 07:16:16;;;;;;;8.93;3.03;;;13.80;68.50;;;;;;5032922;28;20049;-78
2022/05/27 07:18:42;;;;;;;12.15;2.50;;;13.70;69.00;;;;;;5032848;28;20507;-76
2022/05/27 07:21:08;;;;;;;10.50;3.35;;;13.80;67.30;;;;;;5032806;28;20121;-74
2022/05/27 07:23:34;;;;;;;17.25;4.10;;;13.80;68.00;;;;;;5032510;28;20489;-74
2022/05/27 07:26:00;;;;;;;10.32;3.08;;;13.70;68.00;;;;;;5032666;28;20077;-75
2022/05/27 07:28:26;;;;;;;8.23;2.85;;;13.60;67.40;;;;;;5032306;28;20049;-76
2022/05/27 07:30:53;;;;;;;11.93;2.75;;;13.60;67.10;;;;;;5032548;28;20095;-76
2022/05/27 07:33:20;;;;;;;10.13;2.95;;;13.70;67.40;;;;;;5032383;28;20539;-75
2022/05/27 07:35:46;;;;;;;10.70;2.35;;;13.80;65.50;;;;;;4999592;28;20124;-76
2022/05/27 07:38:12;;;;;;;12.50;2.47;;;13.80;64.70;;;;;;5032282;28;20049;-76
2022/05/27 07:40:39;;;;;;;15.85;3.25;;;13.90;64.50;;;;;;5032182;28;20037;-74
2022/05/27 07:43:08;;;;;;;6.97;2.38;;;14.00;65.30;;;;;;5032175;28;20098;-75
2022/05/27 07:45:39;;;;;;;10.63;2.33;;;14.00;63.50;;;;;;5015741;28;20106;-75
2022/05/27 07:48:05;;;;;;;9.98;3.40;;;14.10;63.50;;;;;;5031925;28;20056;-75
2022/05/27 07:50:31;;;;;;;8.52;2.50;;;14.10;64.80;;;;;;5031954;28;20045;-77
2022/05/27 07:52:57;;;;;;;10.63;3.97;;;14.30;65.40;;;;;;5031478;28;20095;-77
2022/05/27 07:55:23;;;;;;;13.70;3.13;;;14.30;65.60;;;;;;5031942;28;20124;-79
2022/05/27 07:57:49;;;;;;;9.15;2.53;;;14.30;63.20;;;;;;5031842;28;20529;-77
2022/05/27 08:00:20;;;;;;;12.93;2.90;;;14.30;64.50;;;;;;5015435;28;20052;-80
2022/05/27 08:02:46;;;;;;;12.05;2.47;;;14.40;64.00;;;;;;5031927;28;20519;-74
2022/05/27 08:05:19;;;;;;;15.95;3.30;;;14.40;64.10;;;;;;5015486;28;20045;-82
2022/05/27 08:07:45;;;;;;;9.35;2.83;;;14.40;64.80;;;;;;5031724;28;20045;-75
2022/05/27 08:10:13;;;;;;;11.60;2.85;;;14.40;65.00;;;;;;5032013;28;20052;-78
2022/05/27 08:12:40;;;;;;;16.77;3.60;;;14.20;64.10;;;;;;5031978;28;20446;-76
2022/05/27 08:15:08;;;;;;;13.02;2.55;;;14.30;65.20;;;;;;5031986;28;20444;-77
2022/05/27 08:17:34;;;;;;;17.05;3.10;;;14.30;64.50;;;;;;5031666;28;20087;-80
2022/05/27 08:20:00;;;;;;;8.93;2.33;;;14.40;64.20;;;;;;5031933;28;20045;-75
2022/05/27 08:22:26;;;;;;;10.10;2.78;;;14.40;63.70;;;;;;5031959;28;20420;-77
2022/05/27 08:24:52;;;;;;;12.52;3.00;;;14.30;63.60;;;;;;5031623;28;20124;-81
2022/05/27 08:27:18;;;;;;;13.70;4.30;;;14.40;64.00;;;;;;5031502;28;20056;-76
2022/05/27 08:29:44;;;;;;;8.70;2.13;;;14.50;64.00;;;;;;5031500;28;20041;-77
2022/05/27 08:32:10;;;;;;;9.40;1.90;;;14.50;62.40;;;;;;5031912;28;20037;-74
2022/05/27 08:40:29;;;;;;;9.80;2.83;;;14.50;63.20;;;;;;5017730;28;20397;-80
2022/05/27 08:43:03;;;;;;;14.45;3.33;;;14.50;63.80;;;;;;5015015;28;20052;-80
2022/05/27 08:45:31;;;;;;;10.23;2.00;;;14.50;63.70;;;;;;5031429;28;20045;-77
2022/05/27 08:48:06;;;;;;;14.30;3.45;;;14.60;61.80;;;;;;5015036;28;20393;-74
2022/05/27 08:50:36;;;;;;;14.40;2.88;;;14.70;63.00;;;;;;5031316;28;20046;-76
2022/05/27 08:53:13;;;;;;;10.15;3.22;;;14.90;64.90;;;;;;5031349;28;20037;-77
2022/05/27 09:01:41;;;;;;;16.10;3.10;;;14.60;63.10;;;;;;5031812;28;20418;-79
2022/05/27 09:04:17;;;;;;;9.77;2.35;;;14.50;63.40;;;;;;5034144;28;20037;-76
2022/05/27 09:06:57;;;;;;;9.30;2.90;;;14.70;63.20;;;;;;5018718;28;20066;-78
2022/05/27 09:09:28;;;;;;;10.38;2.58;;;14.90;63.00;;;;;;5035071;28;20052;-76
2022/05/27 09:12:25;;;;;;;13.15;3.92;;;15.00;60.70;;;;;;5035154;28;20048;-74
2022/05/27 09:15:14;;;;;;;11.40;3.28;;;15.00;60.80;;;;;;5035195;28;20441;-75
2022/05/27 09:17:50;;;;;;;13.48;4.35;;;15.10;62.00;;;;;;5035068;28;20095;-77
2022/05/27 09:20:24;;;;;;;12.95;2.10;;;15.10;62.50;;;;;;5034892;28;20053;-79
2022/05/27 09:23:31;;;;;;;16.52;3.65;;;15.10;60.40;;;;;;5035129;28;20099;-77
2022/05/27 09:26:14;;;;;;;9.98;3.35;;;15.20;61.20;;;;;;4978001;28;20082;-74
2022/05/27 09:28:46;;;;;;;11.43;2.60;;;15.00;61.20;;;;;;5031961;28;20049;-78
2022/05/27 09:31:17;;;;;;;13.43;3.22;;;15.00;61.30;;;;;;5034736;28;20073;-78
2022/05/27 09:33:45;;;;;;;10.20;2.35;;;15.00;61.60;;;;;;5018115;28;20041;-77
2022/05/27 09:36:50;;;;;;;9.77;1.90;;;15.00;62.20;;;;;;5017985;28;20121;-74
2022/05/27 09:39:20;;;;;;;12.15;3.20;;;14.80;62.40;;;;;;5031538;28;20048;-75
2022/05/27 09:41:53;;;;;;;10.30;2.25;;;14.80;61.70;;;;;;5034750;28;20385;-79
2022/05/27 09:45:04;;;;;;;17.58;2.83;;;14.90;59.40;;;;;;5034462;28;20073;-78
2022/05/27 09:47:32;;;;;;;9.82;2.90;;;15.00;61.60;;;;;;5021644;28;20104;-81
2022/05/27 09:50:07;;;;;;;9.32;2.55;;;15.00;60.90;;;;;;5017742;28;20044;-80
2022/05/27 09:52:40;;;;;;;16.23;2.35;;;15.00;61.20;;;;;;5034589;28;20396;-75
2022/05/27 09:55:29;;;;;;;10.57;2.33;;;15.00;62.40;;;;;;5034500;28;20037;-75
2022/05/27 09:57:57;;;;;;;6.95;2.03;;;15.20;59.60;;;;;;5033991;28;20104;-78
2022/05/27 10:00:46;;;;;;;9.57;3.47;;;15.20;60.70;;;;;;5034352;28;20041;-75
2022/05/27 10:03:39;;;;;;;10.90;2.35;;;15.10;60.70;;;;;;5034064;28;20087;-79
2022/05/27 10:06:10;;;;;;;6.75;1.77;;;15.00;60.20;;;;;;5034071;28;20500;-76
2022/05/27 10:09:04;;;;;;;4.22;1.33;;;15.20;59.90;;;;;;5033903;28;20049;-77
2022/05/27 10:11:35;;;;;;;11.05;2.60;;;15.40;58.40;;;;;;5031749;28;20045;-77
2022/05/27 10:14:28;;;;;;;10.95;2.85;;;15.40;59.90;;;;;;5033898;28;20038;-74
2022/05/27 10:17:14;;;;;;;9.88;3.53;;;15.30;63.00;;;;;;5033661;28;20042;-81
2022/05/27 10:19:47;;;;;;;15.48;2.97;;;15.20;63.60;;;;;;5033737;28;20052;-77
2022/05/27 10:22:26;;;;;;;14.47;3.13;;;15.30;63.00;;;;;;5033974;28;20440;-75
2022/05/27 10:25:03;;;;;;;10.57;1.85;;;15.30;63.70;;;;;;5033609;28;20094;-78
2022/05/27 10:27:51;;;;;;;10.45;2.25;;;15.30;62.30;;;;;;5017012;28;20048;-79
2022/05/27 10:30:27;;;;;;;12.57;3.72;;;15.20;62.90;;;;;;5033486;28;20083;-75
2022/05/27 10:32:54;;;;;;;9.95;2.30;;;15.10;62.90;;;;;;5033781;28;20060;-79
2022/05/27 10:35:26;;;;;;;11.05;3.05;;;15.20;63.50;;;;;;5033421;28;20091;-75
2022/05/27 10:38:16;;;;;;;12.82;3.00;;;15.40;61.30;;;;;;5016973;28;20076;-77
2022/05/27 10:40:50;;;;;;;13.45;2.35;;;15.30;60.60;;;;;;5033267;28;20045;-77
2022/05/27 10:43:37;;;;;;;15.95;3.05;;;15.30;60.60;;;;;;5033315;28;20516;-72
2022/05/27 10:46:09;;;;;;;9.63;2.58;;;15.20;60.40;;;;;;5033557;28;20410;-77
2022/05/27 10:48:56;;;;;;;17.20;3.90;;;15.10;61.70;;;;;;5016672;28;20124;-77
2022/05/27 10:51:22;;;;;;;8.73;2.33;;;15.00;62.80;;;;;;5033139;28;20037;-76
2022/05/27 10:53:53;;;;;;;10.98;3.05;;;15.20;63.20;;;;;;5033164;28;20056;-76
2022/05/27 10:56:25;;;;;;;8.38;2.85;;;15.10;63.00;;;;;;5033071;28;20046;-74
2022/05/27 11:02:40;;;;;;;10.52;3.58;;;14.80;63.90;;;;;;5033020;28;20041;-72
2022/05/27 11:05:09;;;;;;;11.73;3.17;;;14.70;64.10;;;;;;5032916;28;20052;-74
2022/05/27 11:07:51;;;;;;;18.27;3.38;;;14.80;65.20;;;;;;5032892;28;20042;-74
2022/05/27 11:10:24;;;;;;;11.95;2.97;;;15.00;64.60;;;;;;5032745;28;20519;-75
2022/05/27 11:16:02;;;;;;;17.48;3.50;;;15.10;64.30;;;;;;5032732;28;20077;-76
2022/05/27 11:18:43;;;;;;;12.75;3.22;;;15.00;63.50;;;;;;5032646;28;20056;-71
2022/05/27 11:21:27;;;;;;;10.35;3.20;;;14.80;63.90;;;;;;5032537;28;20099;-76
2022/05/27 11:24:27;;;;;;;11.13;3.42;;;14.60;63.60;;;;;;5016068;28;20227;-75
2022/05/27 11:27:17;;;;;;;14.88;3.70;;;14.70;64.00;;;;;;5031449;28;20045;-76
2022/05/27 11:30:18;;;;;;;11.20;2.78;;;14.90;64.00;;;;;;5032398;28;20049;-77
2022/05/27 11:33:07;;;;;;;14.63;3.03;;;14.90;63.60;;;;;;5032353;28;20128;-76
2022/05/27 11:35:59;;;;;;;9.45;3.05;;;14.80;63.20;;;;;;5031219;28;20060;-77
2022/05/27 11:38:34;;;;;;;12.23;2.70;;;14.60;63.00;;;;;;5032308;28;20049;-75
2022/05/27 11:41:15;;;;;;;15.73;4.70;;;14.60;64.90;;;;;;5032151;28;20516;-76
2022/05/27 11:44:05;;;;;;;10.25;2.55;;;14.60;65.00;;;;;;5032266;28;20041;-78
2022/05/27 11:46:43;;;;;;;13.43;3.10;;;14.70;63.80;;;;;;5015949;28;20312;-74
2022/05/27 11:49:24;;;;;;;11.27;3.47;;;14.70;64.20;;;;;;5032038;28;20046;-79
2022/05/27 11:52:09;;;;;;;9.68;2.50;;;14.60;63.80;;;;;;5032358;28;20402;-77
2022/05/27 11:54:40;;;;;;;14.50;4.10;;;14.70;64.70;;;;;;5015622;28;20046;-78
2022/05/27 11:57:15;;;;;;;13.57;3.53;;;14.60;65.50;;;;;;5034994;28;20060;-74
2022/05/27 12:00:07;;;;;;;13.82;2.83;;;14.80;64.70;;;;;;5035230;28;20544;-76
2022/05/27 12:02:45;;;;;;;8.55;2.42;;;15.00;63.80;;;;;;5035180;28;20045;-79
2022/05/27 12:05:19;;;;;;;12.68;3.10;;;15.10;62.90;;;;;;5035519;28;20374;-75
2022/05/27 12:07:55;;;;;;;10.35;2.38;;;15.00;63.40;;;;;;5035281;28;20045;-72
2022/05/27 12:10:44;;;;;;;9.75;2.97;;;14.80;62.90;;;;;;5035269;28;20052;-75
2022/05/27 12:13:32;;;;;;;14.82;3.70;;;14.70;63.50;;;;;;5035128;28;20126;-76
2022/05/27 12:16:13;;;;;;;10.43;3.03;;;14.50;65.00;;;;;;5035273;28;20041;-78
2022/05/27 12:19:02;;;;;;;14.75;2.42;;;14.80;65.80;;;;;;5018810;28;20064;-76
2022/05/27 12:21:35;;;;;;;9.20;2.63;;;14.80;64.20;;;;;;5035306;28;20056;-72
2022/05/27 12:24:25;;;;;;;12.85;3.35;;;14.80;63.80;;;;;;5035240;28;20435;-77
2022/05/27 12:26:54;;;;;;;11.10;3.40;;;14.70;64.80;;;;;;5035069;28;20048;-73
2022/05/27 12:29:22;;;;;;;10.50;2.40;;;14.70;65.80;;;;;;5018285;28;20401;-76
2022/05/27 12:31:49;;;;;;;12.85;2.85;;;14.70;65.60;;;;;;5034929;28;20041;-72
2022/05/27 12:34:27;;;;;;;13.65;3.10;;;14.70;65.00;;;;;;5034841;28;20048;-74
2022/05/27 12:36:54;;;;;;;12.73;3.03;;;14.70;64.90;;;;;;5034883;28;20041;-75
2022/05/27 12:39:27;;;;;;;11.80;2.78;;;14.90;64.10;;;;;;5038109;28;20053;-75
2022/05/27 12:42:20;;;;;;;13.25;3.42;;;14.90;63.30;;;;;;5038817;28;20178;-77
2022/05/27 12:44:47;;;;;;;13.35;2.92;;;15.00;63.10;;;;;;5038885;28;20041;-76
2022/05/27 12:47:33;;;;;;;12.10;3.75;;;15.20;63.10;;;;;;5039006;28;20075;-76
2022/05/27 12:50:02;;;;;;;13.23;3.45;;;15.20;63.70;;;;;;5038619;28;20041;-79
2022/05/27 12:52:30;;;;;;;6.82;1.85;;;15.10;63.30;;;;;;5039034;28;20040;-75
2022/05/27 12:54:56;;;;;;;12.15;2.65;;;15.00;62.90;;;;;;5038690;28;20094;-77
2022/05/27 13:00:59;;;;;;;11.13;3.47;;;15.10;63.60;;;;;;4940031;29;20051;-73
2022/05/27 13:03:33;;;;;;;8.15;2.55;;;15.10;64.10;;;;;;4924209;29;20068;-78
2022/05/27 13:06:07;;;;;;;11.68;2.55;;;15.00;63.60;;;;;;5014003;28;20044;-80
2022/05/27 13:08:42;;;;;;;11.90;2.78;;;15.00;64.10;;;;;;5022061;28;20409;-73
2022/05/27 13:11:31;;;;;;;11.05;3.15;;;15.00;63.00;;;;;;5038227;28;20041;-75
2022/05/27 13:14:03;;;;;;;10.55;2.72;;;15.00;63.60;;;;;;5038290;28;20041;-77
2022/05/27 13:16:47;;;;;;;6.82;2.65;;;15.00;63.90;;;;;;5038226;28;20052;-76
2022/05/27 13:19:22;;;;;;;11.48;2.95;;;15.10;63.80;;;;;;5021889;28;20416;-75
2022/05/27 13:21:53;;;;;;;16.75;2.97;;;15.00;63.40;;;;;;5038379;28;20049;-75
2022/05/27 13:24:19;;;;;;;11.30;3.20;;;15.00;65.00;;;;;;5038116;28;20044;-74
2022/05/27 13:26:59;;;;;;;7.55;2.15;;;14.90;64.50;;;;;;5038174;28;20047;-75
2022/05/27 13:30:03;;;;;;;10.85;2.45;;;14.80;64.70;;;;;;5038011;28;20039;-75
2022/05/27 13:32:49;;;;;;;17.58;2.67;;;14.70;64.80;;;;;;4939791;29;20104;-74
2022/05/27 13:35:17;;;;;;;12.75;2.28;;;14.70;65.30;;;;;;5014736;28;20142;-76
2022/05/27 13:37:58;;;;;;;10.82;2.70;;;14.80;64.60;;;;;;5038100;28;20388;-74
2022/05/27 13:40:29;;;;;;;9.95;2.35;;;15.00;63.50;;;;;;5038022;28;20092;-77
2022/05/27 13:43:01;;;;;;;10.25;2.65;;;15.50;64.60;;;;;;5037734;28;20045;-76